createdAt,value
2023-02-11T00:00:40.110Z,79.37
2023-02-11T00:03:06.897Z,79.51
2023-02-11T00:05:33.825Z,79.52
2023-02-11T00:08:00.544Z,79.46
2023-02-11T00:10:27.099Z,77.93
2023-02-11T00:12:53.766Z,79.54
2023-02-11T00:15:21.256Z,78.63
2023-02-11T00:17:47.980Z,80.45
2023-02-11T00:20:14.860Z,79.47
2023-02-11T00:22:41.574Z,78.26
2023-02-11T00:25:08.399Z,77.95
2023-02-11T00:27:36.995Z,79.05
2023-02-11T00:30:05.401Z,80.56
2023-02-11T00:32:32.238Z,79.46
2023-02-11T00:34:58.829Z,79.17
2023-02-11T00:37:25.453Z,80.83
2023-02-11T00:39:52.107Z,81.14
2023-02-11T00:42:18.718Z,81.27
2023-02-11T00:44:45.258Z,80.53
2023-02-11T00:47:11.814Z,79.80
2023-02-11T00:49:40.350Z,79.05
2023-02-11T00:52:07.365Z,80.25
2023-02-11T00:54:33.818Z,81.37
2023-02-11T00:57:00.530Z,82.89
2023-02-11T00:59:27.347Z,82.22
2023-02-11T01:01:54.187Z,83.11
2023-02-11T01:04:20.814Z,82.09
2023-02-11T01:06:47.465Z,81.77
2023-02-11T01:09:13.985Z,82.39
2023-02-11T01:11:40.802Z,82.46
2023-02-11T01:14:07.379Z,81.99
2023-02-11T01:16:33.960Z,82.21
2023-02-11T01:19:00.509Z,82.38
2023-02-11T01:21:27.390Z,81.58
2023-02-11T01:23:53.935Z,82.48
2023-02-11T01:26:20.586Z,80.43
2023-02-11T01:28:47.395Z,79.77
2023-02-11T01:31:14.387Z,80.68
2023-02-11T01:33:41.625Z,81.12
2023-02-11T01:36:09.046Z,80.18
2023-02-11T01:38:36.190Z,82.73
2023-02-11T01:41:06.320Z,83.63
2023-02-11T01:43:35.372Z,83.85
2023-02-11T01:46:01.960Z,85.40
2023-02-11T01:48:34.190Z,87.88
2023-02-11T01:51:06.077Z,87.61
2023-02-11T01:54:03.077Z,86.39
2023-02-11T01:56:50.038Z,85.14
2023-02-11T02:00:00.039Z,83.60
2023-02-11T02:02:34.475Z,82.88
2023-02-11T02:05:09.859Z,84.49
2023-02-11T02:07:49.216Z,84.53
2023-02-11T02:10:20.911Z,84.13
2023-02-11T02:12:47.557Z,82.27
2023-02-11T02:15:25.424Z,82.03
2023-02-11T02:18:12.206Z,82.27
2023-02-11T02:21:09.914Z,84.74
2023-02-11T02:24:14.365Z,84.35
2023-02-11T02:26:54.344Z,85.12
2023-02-11T02:29:23.908Z,84.33
2023-02-11T02:31:56.641Z,82.77
2023-02-11T02:34:44.576Z,81.76
2023-02-11T02:37:34.123Z,81.48
2023-02-11T02:40:06.336Z,81.50
2023-02-11T02:42:33.279Z,81.27
2023-02-11T02:44:59.835Z,83.70
2023-02-11T02:47:26.611Z,85.00
2023-02-11T02:49:53.145Z,84.30
2023-02-11T02:52:56.392Z,82.29
2023-02-11T02:55:28.001Z,82.88
2023-02-11T02:58:27.335Z,83.20
2023-02-11T03:01:20.549Z,84.36
2023-02-11T03:04:08.214Z,80.86
2023-02-11T03:06:41.198Z,80.97
2023-02-11T03:09:16.280Z,81.49
2023-02-11T03:11:43.249Z,81.83
2023-02-11T03:14:11.186Z,81.62
2023-02-11T03:16:39.522Z,86.67
2023-02-11T03:19:18.653Z,94.08
2023-02-11T03:21:47.572Z,90.70
2023-02-11T03:24:22.266Z,89.17
2023-02-11T03:26:56.733Z,86.76
2023-02-11T03:29:27.999Z,86.36
2023-02-11T03:32:06.796Z,87.27
2023-02-11T03:34:33.368Z,87.86
2023-02-11T03:37:24.194Z,87.44
2023-02-11T03:40:17.164Z,86.46
2023-02-11T03:42:48.995Z,84.84
2023-02-11T03:45:19.837Z,83.25
2023-02-11T03:47:50.977Z,82.90
2023-02-11T03:50:20.120Z,85.28
2023-02-11T03:52:49.240Z,85.99
2023-02-11T03:55:21.075Z,86.82
2023-02-11T03:57:48.791Z,86.38
2023-02-11T04:00:15.873Z,87.33
2023-02-11T04:02:43.474Z,88.27
2023-02-11T04:05:13.086Z,87.15
2023-02-11T04:07:39.905Z,84.76
2023-02-11T04:10:07.285Z,85.24
2023-02-11T04:12:33.873Z,85.52
2023-02-11T04:15:00.430Z,86.13
2023-02-11T04:17:26.967Z,87.17
2023-02-11T04:19:53.507Z,88.58
2023-02-11T04:22:20.074Z,87.84
2023-02-11T04:24:46.569Z,87.87
2023-02-11T04:27:13.143Z,88.87
2023-02-11T04:29:39.909Z,88.81
2023-02-11T04:32:06.567Z,89.45
2023-02-11T04:34:33.607Z,88.33
2023-02-11T04:37:00.047Z,86.78
2023-02-11T04:39:26.666Z,84.88
2023-02-11T04:41:53.253Z,84.24
2023-02-11T04:44:19.838Z,84.40
2023-02-11T04:46:46.368Z,84.87
2023-02-11T04:49:16.518Z,86.10
2023-02-11T04:51:46.965Z,85.47
2023-02-11T04:54:14.938Z,86.55
2023-02-11T04:56:41.515Z,86.75
2023-02-11T04:59:08.196Z,86.51
2023-02-11T05:01:36.022Z,85.77
2023-02-11T05:04:02.713Z,84.20
2023-02-11T05:06:29.317Z,82.38
2023-02-11T05:08:56.149Z,83.05
2023-02-11T05:11:24.670Z,83.47
2023-02-11T05:13:51.596Z,83.58
2023-02-11T05:16:18.420Z,84.38
2023-02-11T05:18:45.607Z,82.39
2023-02-11T05:21:18.062Z,80.50
2023-02-11T05:23:45.533Z,81.01
2023-02-11T05:26:12.899Z,81.45
2023-02-11T05:28:39.708Z,81.73
2023-02-11T05:31:06.940Z,81.38
2023-02-11T05:33:33.881Z,84.22
2023-02-11T05:36:01.238Z,89.00
2023-02-11T05:38:28.064Z,87.44
2023-02-11T05:40:56.198Z,86.90
2023-02-11T05:43:23.226Z,88.67
2023-02-11T05:45:50.397Z,88.58
2023-02-11T05:48:17.883Z,88.90
2023-02-11T05:50:45.180Z,86.94
2023-02-11T05:53:12.260Z,85.45
2023-02-11T05:55:39.296Z,86.10
2023-02-11T05:58:05.933Z,87.72
2023-02-11T06:00:32.393Z,88.88
2023-02-11T06:02:59.186Z,91.30
2023-02-11T06:05:26.492Z,92.00
2023-02-11T06:07:53.333Z,89.86
2023-02-11T06:10:20.042Z,89.92
2023-02-11T06:12:46.618Z,89.69
2023-02-11T06:15:13.304Z,89.05
2023-02-11T06:17:39.949Z,88.28
2023-02-11T06:20:08.680Z,86.59
2023-02-11T06:22:35.365Z,85.78
2023-02-11T06:25:02.519Z,85.32
2023-02-11T06:27:29.608Z,83.17
2023-02-11T06:29:56.069Z,82.24
2023-02-11T06:32:39.823Z,81.61
2023-02-11T06:35:11.790Z,80.04
2023-02-11T06:37:39.221Z,79.33
2023-02-11T06:40:05.885Z,78.13
2023-02-11T06:42:32.490Z,77.28
2023-02-11T06:44:59.058Z,76.69
2023-02-11T06:47:25.748Z,75.60
2023-02-11T06:49:52.334Z,74.48
2023-02-11T06:52:18.913Z,74.09
2023-02-11T06:54:45.458Z,73.33
2023-02-11T06:57:12.027Z,72.41
2023-02-11T06:59:38.559Z,71.25
2023-02-11T07:02:05.419Z,70.01
2023-02-11T07:04:32.113Z,69.66
2023-02-11T07:06:58.745Z,68.67
2023-02-11T07:09:25.258Z,67.98
2023-02-11T07:11:51.924Z,66.46
2023-02-11T07:14:18.535Z,65.02
2023-02-11T07:16:45.153Z,64.69
2023-02-11T07:19:12.044Z,65.25
2023-02-11T07:21:38.770Z,65.49
2023-02-11T07:24:11.074Z,64.73
2023-02-11T07:26:38.227Z,64.09
2023-02-11T07:29:05.348Z,63.40
2023-02-11T07:31:32.530Z,63.19
2023-02-11T07:34:00.690Z,61.48
2023-02-11T07:36:29.571Z,60.14
2023-02-11T07:38:56.486Z,59.03
2023-02-11T07:41:25.739Z,58.23
2023-02-11T07:43:52.877Z,56.66
2023-02-11T07:46:21.473Z,56.73
2023-02-11T07:48:48.331Z,56.53
2023-02-11T07:51:16.325Z,55.91
2023-02-11T07:53:43.305Z,56.24
2023-02-11T07:56:11.757Z,56.27
2023-02-11T07:58:38.698Z,55.12
2023-02-11T08:01:08.039Z,55.09
2023-02-11T08:03:36.316Z,54.97
2023-02-11T08:06:08.205Z,55.86
2023-02-11T08:08:34.779Z,55.21
2023-02-11T08:11:16.605Z,53.29
2023-02-11T08:13:43.373Z,52.57
2023-02-11T08:16:10.337Z,52.17
2023-02-11T08:18:36.951Z,50.79
2023-02-11T08:21:05.917Z,49.15
2023-02-11T08:23:32.532Z,47.17
2023-02-11T08:26:06.658Z,45.61
2023-02-11T08:28:36.754Z,43.09
2023-02-11T08:31:16.292Z,43.61
2023-02-11T08:33:43.236Z,43.14
2023-02-11T08:36:18.254Z,41.53
2023-02-11T08:38:45.279Z,41.94
2023-02-11T08:41:14.851Z,41.14
2023-02-11T08:43:42.902Z,40.75
2023-02-11T08:46:13.447Z,40.33
2023-02-11T08:48:40.063Z,38.02
2023-02-11T08:51:14.526Z,38.25
2023-02-11T08:53:41.281Z,38.81
2023-02-11T08:56:12.243Z,37.93
2023-02-11T08:58:40.547Z,36.29
2023-02-11T09:01:23.103Z,34.34
2023-02-11T09:03:49.992Z,34.90
2023-02-11T09:06:18.562Z,33.41
2023-02-11T09:08:49.421Z,31.87
2023-02-11T09:11:17.554Z,31.85
2023-02-11T09:13:45.344Z,33.19
2023-02-11T09:16:21.349Z,33.11
2023-02-11T09:18:48.306Z,30.43
2023-02-11T09:21:16.142Z,29.20
2023-02-11T09:23:44.853Z,28.12
2023-02-11T09:26:15.959Z,27.56
2023-02-11T09:28:42.815Z,28.30
2023-02-11T09:31:12.499Z,27.73
2023-02-11T09:33:42.201Z,26.83
2023-02-11T09:36:09.264Z,27.53
2023-02-11T09:38:35.862Z,27.53
2023-02-11T09:41:07.645Z,27.40
2023-02-11T09:43:46.880Z,30.01
2023-02-11T09:46:16.118Z,32.96
2023-02-11T09:48:45.632Z,34.35
2023-02-11T09:51:44.348Z,36.90
2023-02-11T09:54:54.059Z,38.86
2023-02-11T09:57:28.525Z,39.13
2023-02-11T09:59:56.634Z,39.48
2023-02-11T10:03:01.770Z,40.46
2023-02-11T10:05:37.207Z,39.69
2023-02-11T10:08:13.647Z,40.02
2023-02-11T10:10:55.453Z,40.36
2023-02-11T10:13:51.471Z,40.41
2023-02-11T10:16:24.068Z,40.36
2023-02-11T10:19:00.367Z,40.79
2023-02-11T10:22:00.420Z,41.18
2023-02-11T10:24:28.981Z,42.00
2023-02-11T10:26:55.953Z,41.39
2023-02-11T10:29:35.637Z,40.99
2023-02-11T10:32:07.159Z,41.63
2023-02-11T10:34:34.140Z,42.31
2023-02-11T10:37:01.057Z,41.56
2023-02-11T10:39:28.193Z,43.28
2023-02-11T10:42:00.145Z,40.84
2023-02-11T10:44:32.005Z,41.39
2023-02-11T10:47:02.236Z,41.58
2023-02-11T10:49:47.842Z,40.32
2023-02-11T10:52:26.462Z,40.23
2023-02-11T10:55:21.542Z,39.58
2023-02-11T10:57:56.494Z,40.63
2023-02-11T11:00:43.628Z,39.76
2023-02-11T11:03:22.068Z,39.49
2023-02-11T11:05:57.383Z,38.60
2023-02-11T11:08:38.088Z,39.30
2023-02-11T11:11:16.753Z,39.85
2023-02-11T11:13:52.417Z,39.72
2023-02-11T11:16:30.551Z,38.71
2023-02-11T11:19:09.071Z,39.77
2023-02-11T11:21:41.754Z,38.77
2023-02-11T11:24:18.792Z,38.25
2023-02-11T11:26:47.380Z,37.75
2023-02-11T11:29:22.792Z,37.72
2023-02-11T11:31:57.048Z,36.90
2023-02-11T11:34:34.624Z,37.34
2023-02-11T11:37:11.249Z,37.05
2023-02-11T11:39:39.458Z,37.39
2023-02-11T11:42:25.727Z,37.30
2023-02-11T11:45:23.147Z,37.46
2023-02-11T11:47:54.248Z,38.41
2023-02-11T11:50:26.692Z,37.36
2023-02-11T11:53:24.233Z,36.17
2023-02-11T11:55:59.757Z,36.31
2023-02-11T11:58:29.226Z,35.74
2023-02-11T12:00:55.793Z,36.19
2023-02-11T12:03:41.474Z,34.75
2023-02-11T12:06:49.405Z,35.07
2023-02-11T12:09:29.766Z,35.62
2023-02-11T12:12:18.076Z,34.20
2023-02-11T12:14:47.227Z,34.11
2023-02-11T12:17:38.383Z,34.55
2023-02-11T12:20:23.751Z,34.16
2023-02-11T12:23:14.667Z,33.18
2023-02-11T12:25:55.074Z,34.00
2023-02-11T12:28:40.457Z,35.67
2023-02-11T12:31:35.588Z,32.03
2023-02-11T12:34:24.137Z,31.50
2023-02-11T12:37:15.327Z,31.43
2023-02-11T12:40:21.888Z,31.19
2023-02-11T12:43:18.465Z,31.26
2023-02-11T12:46:22.381Z,32.25
2023-02-11T12:49:07.582Z,31.53
2023-02-11T12:52:06.505Z,31.18
2023-02-11T12:54:42.078Z,30.89
2023-02-11T12:57:20.662Z,31.05
2023-02-11T12:59:56.684Z,31.10
2023-02-11T13:02:34.903Z,30.01
2023-02-11T13:05:08.335Z,31.48
2023-02-11T13:07:44.847Z,31.52
2023-02-11T13:10:14.319Z,31.29
2023-02-11T13:13:04.635Z,30.67
2023-02-11T13:15:31.808Z,30.33
2023-02-11T13:18:10.164Z,30.64
2023-02-11T13:20:51.520Z,30.92
2023-02-11T13:23:40.273Z,31.01
2023-02-11T13:26:25.976Z,30.39
2023-02-11T13:29:14.333Z,31.18
2023-02-11T13:31:41.024Z,29.42
2023-02-11T13:34:53.876Z,30.19
2023-02-11T13:37:38.980Z,30.73
2023-02-11T13:40:24.139Z,32.24
2023-02-11T13:42:56.509Z,32.54
2023-02-11T13:45:45.594Z,30.56
2023-02-11T13:48:25.394Z,30.19
2023-02-11T13:50:57.403Z,30.55
2023-02-11T13:53:24.806Z,30.48
2023-02-11T13:55:53.170Z,30.51
2023-02-11T13:58:28.665Z,30.98
2023-02-11T14:00:55.856Z,31.00
2023-02-11T14:03:56.169Z,30.58
2023-02-11T14:07:00.625Z,31.62
2023-02-11T14:09:37.092Z,30.20
2023-02-11T14:12:24.321Z,30.64
2023-02-11T14:15:07.896Z,31.05
2023-02-11T14:17:35.290Z,30.96
2023-02-11T14:20:21.762Z,31.15
2023-02-11T14:22:50.868Z,31.23
2023-02-11T14:25:24.239Z,31.87
2023-02-11T14:28:23.159Z,33.40
2023-02-11T14:31:13.017Z,35.41
2023-02-11T14:33:45.900Z,35.86
2023-02-11T14:36:12.443Z,33.50
2023-02-11T14:38:48.168Z,33.39
2023-02-11T14:41:24.405Z,35.63
2023-02-11T14:43:58.197Z,34.84
2023-02-11T14:46:27.788Z,36.67
2023-02-11T14:48:58.236Z,36.24
2023-02-11T14:51:34.965Z,39.33
2023-02-11T14:54:12.990Z,39.67
2023-02-11T14:56:39.777Z,39.41
2023-02-11T14:59:18.008Z,38.71
2023-02-11T15:01:49.238Z,39.38
2023-02-11T15:04:36.472Z,37.81
2023-02-11T15:07:08.384Z,41.24
2023-02-11T15:09:42.965Z,41.04
2023-02-11T15:12:23.832Z,40.88
2023-02-11T15:15:00.474Z,40.09
2023-02-11T15:17:31.007Z,40.42
2023-02-11T15:20:01.122Z,42.37
2023-02-11T15:22:36.689Z,43.90
2023-02-11T15:25:14.960Z,42.50
2023-02-11T15:27:46.511Z,41.87
2023-02-11T15:30:22.245Z,42.19
2023-02-11T15:33:00.017Z,42.26
2023-02-11T15:35:47.097Z,44.69
2023-02-11T15:38:13.874Z,45.66
2023-02-11T15:40:40.584Z,45.66
2023-02-11T15:43:10.074Z,47.07
2023-02-11T15:45:44.325Z,45.34
2023-02-11T15:48:26.822Z,44.22
2023-02-11T15:51:05.013Z,44.06
2023-02-11T15:53:38.233Z,42.89
2023-02-11T15:56:09.851Z,44.39
2023-02-11T15:58:38.251Z,45.38
2023-02-11T16:01:07.520Z,46.07
2023-02-11T16:03:34.595Z,45.40
2023-02-11T16:06:19.786Z,46.72
2023-02-11T16:09:22.003Z,47.48
2023-02-11T16:11:48.561Z,48.13
2023-02-11T16:14:34.711Z,49.35
2023-02-11T16:17:11.838Z,49.48
2023-02-11T16:19:45.811Z,49.43
2023-02-11T16:22:38.183Z,50.15
2023-02-11T16:25:05.810Z,52.31
2023-02-11T16:27:41.749Z,53.33
2023-02-11T16:30:40.969Z,53.91
2023-02-11T16:33:10.954Z,52.62
2023-02-11T16:35:38.344Z,53.24
2023-02-11T16:38:04.923Z,53.14
2023-02-11T16:40:31.913Z,53.58
2023-02-11T16:42:58.544Z,52.58
2023-02-11T16:45:25.221Z,49.99
2023-02-11T16:47:51.789Z,50.27
2023-02-11T16:50:24.198Z,53.13
2023-02-11T16:52:52.388Z,51.93
2023-02-11T16:55:19.106Z,52.02
2023-02-11T16:57:45.741Z,51.31
2023-02-11T17:00:16.384Z,52.19
2023-02-11T17:02:43.556Z,50.97
2023-02-11T17:05:18.460Z,52.21
2023-02-11T17:07:45.079Z,53.06
2023-02-11T17:10:17.311Z,52.74
2023-02-11T17:12:44.066Z,51.33
2023-02-11T17:15:11.096Z,51.15
2023-02-11T17:17:37.805Z,52.04
2023-02-11T17:20:05.151Z,50.75
2023-02-11T17:22:31.735Z,51.51
2023-02-11T17:24:58.822Z,52.73
2023-02-11T17:27:25.381Z,53.22
2023-02-11T17:29:51.987Z,52.23
2023-02-11T17:32:18.575Z,51.66
2023-02-11T17:34:45.205Z,51.14
2023-02-11T17:37:11.787Z,52.46
2023-02-11T17:39:40.203Z,53.42
2023-02-11T17:42:08.014Z,55.39
2023-02-11T17:44:34.711Z,53.58
2023-02-11T17:47:01.449Z,54.79
2023-02-11T17:49:28.151Z,53.40
2023-02-11T17:51:54.697Z,53.98
2023-02-11T17:54:21.312Z,55.28
2023-02-11T17:56:50.785Z,54.58
2023-02-11T17:59:17.662Z,54.33
2023-02-11T18:01:44.305Z,54.30
2023-02-11T18:04:14.699Z,54.52
2023-02-11T18:06:41.465Z,53.47
2023-02-11T18:09:08.062Z,55.31
2023-02-11T18:11:37.089Z,56.35
2023-02-11T18:14:05.173Z,56.39
2023-02-11T18:16:34.437Z,56.08
2023-02-11T18:19:01.456Z,55.84
2023-02-11T18:21:28.291Z,54.91
2023-02-11T18:23:56.958Z,56.12
2023-02-11T18:26:26.335Z,59.22
2023-02-11T18:28:52.906Z,59.70
2023-02-11T18:31:20.106Z,59.30
2023-02-11T18:33:47.947Z,61.17
2023-02-11T18:36:15.338Z,61.70
2023-02-11T18:38:44.253Z,60.34
2023-02-11T18:41:12.041Z,59.45
2023-02-11T18:43:40.133Z,60.96
2023-02-11T18:46:12.833Z,61.62
2023-02-11T18:48:40.511Z,60.61
2023-02-11T18:51:15.974Z,61.67
2023-02-11T18:53:43.155Z,61.27
2023-02-11T18:56:14.557Z,62.86
2023-02-11T18:58:41.199Z,64.73
2023-02-11T19:01:17.244Z,63.09
2023-02-11T19:03:44.421Z,63.63
2023-02-11T19:06:15.172Z,62.10
2023-02-11T19:08:41.917Z,63.75
2023-02-11T19:11:09.464Z,63.55
2023-02-11T19:13:36.051Z,64.38
2023-02-11T19:16:08.692Z,63.59
2023-02-11T19:18:38.730Z,63.51
2023-02-11T19:21:13.746Z,64.01
2023-02-11T19:23:40.313Z,64.50
2023-02-11T19:26:06.891Z,65.21
2023-02-11T19:28:35.287Z,66.36
2023-02-11T19:31:06.882Z,65.73
2023-02-11T19:33:33.587Z,65.83
2023-02-11T19:36:07.024Z,67.58
2023-02-11T19:38:34.453Z,67.08
2023-02-11T19:41:01.152Z,65.07
2023-02-11T19:43:28.298Z,66.21
2023-02-11T19:45:56.659Z,63.99
2023-02-11T19:48:25.369Z,63.66
2023-02-11T19:50:52.078Z,66.54
2023-02-11T19:53:18.648Z,66.24
2023-02-11T19:55:45.261Z,67.33
2023-02-11T19:58:11.909Z,67.47
2023-02-11T20:00:38.586Z,66.36
2023-02-11T20:03:05.172Z,64.76
2023-02-11T20:05:31.842Z,68.10
2023-02-11T20:07:58.562Z,67.01
2023-02-11T20:10:25.745Z,65.83
2023-02-11T20:12:52.501Z,65.21
2023-02-11T20:15:19.078Z,66.98
2023-02-11T20:17:45.860Z,67.21
2023-02-11T20:20:13.036Z,65.13
2023-02-11T20:22:39.433Z,63.89
2023-02-11T20:25:06.608Z,65.54
2023-02-11T20:27:33.522Z,66.61
2023-02-11T20:30:00.055Z,66.89
2023-02-11T20:32:26.751Z,67.06
2023-02-11T20:34:53.431Z,67.01
2023-02-11T20:37:19.992Z,66.27
2023-02-11T20:39:46.961Z,65.67
2023-02-11T20:42:14.962Z,65.16
2023-02-11T20:44:41.529Z,64.95
2023-02-11T20:47:08.217Z,64.12
2023-02-11T20:49:34.752Z,64.23
2023-02-11T20:52:01.293Z,64.19
2023-02-11T20:54:28.578Z,64.36
2023-02-11T20:56:56.858Z,65.08
2023-02-11T20:59:24.254Z,69.15
2023-02-11T21:01:55.801Z,70.62
2023-02-11T21:04:30.405Z,72.00
2023-02-11T21:06:59.768Z,73.00
2023-02-11T21:09:29.463Z,71.95
2023-02-11T21:11:56.566Z,71.69
2023-02-11T21:14:24.892Z,70.93
2023-02-11T21:16:51.743Z,69.78
2023-02-11T21:19:18.566Z,71.61
2023-02-11T21:21:45.630Z,72.44
2023-02-11T21:24:13.359Z,72.12
2023-02-11T21:26:40.264Z,73.97
2023-02-11T21:29:08.300Z,73.14
2023-02-11T21:31:36.608Z,72.36
2023-02-11T21:34:03.941Z,73.09
2023-02-11T21:36:30.778Z,73.42
2023-02-11T21:38:57.571Z,73.54
2023-02-11T21:41:24.913Z,72.98
2023-02-11T21:43:51.945Z,73.46
2023-02-11T21:46:19.828Z,74.09
2023-02-11T21:48:47.314Z,72.35
2023-02-11T21:51:17.173Z,72.41
2023-02-11T21:53:44.246Z,76.00
2023-02-11T21:56:17.198Z,75.01
2023-02-11T21:58:45.184Z,72.04
2023-02-11T22:01:17.706Z,71.64
2023-02-11T22:03:45.625Z,73.99
2023-02-11T22:06:15.145Z,79.09
2023-02-11T22:08:41.931Z,78.48
2023-02-11T22:11:12.324Z,78.29
2023-02-11T22:13:39.317Z,76.64
2023-02-11T22:16:12.086Z,76.35
2023-02-11T22:18:39.083Z,74.68
2023-02-11T22:21:16.524Z,74.70
2023-02-11T22:23:46.098Z,74.94
2023-02-11T22:26:18.538Z,73.70
2023-02-11T22:28:45.378Z,73.21
2023-02-11T22:31:23.126Z,73.93
2023-02-11T22:33:50.228Z,77.29
2023-02-11T22:36:22.738Z,78.32
2023-02-11T22:38:49.810Z,77.07
2023-02-11T22:41:17.225Z,76.15
2023-02-11T22:43:44.904Z,77.97
2023-02-11T22:46:14.152Z,79.58
2023-02-11T22:48:43.502Z,80.11
2023-02-11T22:51:21.457Z,81.05
2023-02-11T22:54:20.016Z,81.05
2023-02-11T22:56:50.595Z,80.97
2023-02-11T22:59:18.054Z,78.83
2023-02-11T23:01:45.665Z,77.48
2023-02-11T23:04:14.001Z,78.50
2023-02-11T23:06:40.636Z,79.78
2023-02-11T23:09:09.328Z,79.73
2023-02-11T23:11:35.925Z,80.93
2023-02-11T23:14:02.939Z,81.91
2023-02-11T23:16:31.766Z,79.41
2023-02-11T23:19:04.246Z,77.84
2023-02-11T23:21:32.551Z,78.21
2023-02-11T23:24:06.396Z,80.56
2023-02-11T23:26:33.817Z,80.53
2023-02-11T23:29:00.444Z,78.95
2023-02-11T23:31:46.679Z,77.79
2023-02-11T23:34:17.320Z,77.59
2023-02-11T23:36:44.382Z,79.67
2023-02-11T23:39:13.681Z,79.34
2023-02-11T23:41:40.246Z,80.04
2023-02-11T23:44:06.836Z,79.68
2023-02-11T23:46:33.424Z,78.71
2023-02-11T23:49:00.145Z,83.32
2023-02-11T23:51:26.664Z,81.24
2023-02-11T23:53:56.002Z,80.82
2023-02-11T23:56:27.211Z,80.43
2023-02-11T23:58:56.462Z,80.54
